Time;durP1;ratioP1;P1;durP2;ratioP2;P2;SDS_P1;SDS_P2;PMS_P1;PMS_P2;Temp;Humidity;BMP_temperature;BMP_pressure;BME280_temperature;BME280_humidity;BME280_pressure;Samples;Min_cycle;Max_cycle;Signal;HPM_P1;HPM_P2
2022/05/14 00:01:50;;;;;;;;;6.75;3.75;;;;;14.90;100.00;101888.66;6264495;22;45076;-84
2022/05/14 00:04:16;;;;;;;;;4.00;4.00;;;;;14.89;100.00;101878.03;6290035;22;44903;-87
2022/05/14 00:06:41;;;;;;;;;6.25;3.00;;;;;14.83;100.00;101878.44;6295910;22;44860;-87
2022/05/14 00:09:07;;;;;;;;;3.75;3.75;;;;;14.82;100.00;101868.72;6262016;22;45357;-86
2022/05/14 00:14:20;;;;;;;;;2.25;2.25;;;;;14.76;100.00;101869.13;6291077;22;44755;-86
2022/05/14 00:16:46;;;;;;;;;2.00;2.00;;;;;14.74;100.00;101874.56;6258178;22;45192;-86
2022/05/14 00:19:13;;;;;;;;;4.00;3.40;;;;;14.74;100.00;101868.34;6286718;22;45203;-85
2022/05/14 00:21:41;;;;;;;;;3.80;3.20;;;;;14.74;100.00;101873.72;6291990;22;44576;-86
2022/05/14 00:24:07;;;;;;;;;3.25;3.00;;;;;14.74;100.00;101874.56;6290422;22;45168;-87
2022/05/14 00:26:35;;;;;;;;;3.00;3.00;;;;;14.74;100.00;101871.88;6263179;22;46223;-85
2022/05/14 00:29:01;;;;;;;;;4.00;4.00;;;;;14.70;100.00;101870.41;6287460;22;45289;-86
2022/05/14 00:31:26;;;;;;;;;7.25;4.50;;;;;14.67;100.00;101872.41;6292852;22;44768;-85
2022/05/14 00:33:51;;;;;;;;;3.50;3.00;;;;;14.63;100.00;101871.75;6265252;22;44950;-84
2022/05/14 00:36:17;;;;;;;;;3.50;3.00;;;;;14.62;100.00;101867.38;6294067;22;45388;-86
2022/05/14 00:38:43;;;;;;;;;2.00;2.00;;;;;14.62;100.00;101867.38;6265530;22;44701;-86
2022/05/14 00:41:10;;;;;;;;;4.00;4.00;;;;;14.62;100.00;101870.91;6267423;22;44786;-86
2022/05/14 00:44:04;;;;;;;;;4.00;4.00;;;;;14.63;100.00;101877.97;6244858;22;44854;-85
2022/05/14 00:46:52;;;;;;;;;4.75;4.00;;;;;14.63;100.00;101863.72;6263477;22;46780;-86
2022/05/14 00:49:24;;;;;;;;;4.20;3.60;;;;;14.60;100.00;101862.13;6290721;22;44653;-86
2022/05/14 00:51:50;;;;;;;;;2.80;1.40;;;;;14.56;100.00;101859.75;6237933;22;44663;-84
2022/05/14 00:54:23;;;;;;;;;3.50;3.25;;;;;14.51;100.00;101854.72;6289071;22;44778;-86
2022/05/14 00:56:53;;;;;;;;;4.00;4.00;;;;;14.47;100.00;101855.84;6284463;22;45268;-85
2022/05/14 00:59:22;;;;;;;;;4.80;4.80;;;;;14.48;100.00;101851.38;6261970;22;44738;-85
2022/05/14 01:01:49;;;;;;;;;4.75;2.50;;;;;14.45;100.00;101852.38;6292902;22;45203;-85
2022/05/14 01:04:16;;;;;;;;;3.00;3.00;;;;;14.42;100.00;101854.41;6298616;22;44720;-85
2022/05/14 01:06:50;;;;;;;;;4.50;3.25;;;;;14.42;100.00;101849.94;6296486;22;44976;-85
2022/05/14 01:09:15;;;;;;;;;6.80;4.00;;;;;14.40;100.00;101850.00;6296465;22;44760;-83
2022/05/14 01:11:41;;;;;;;;;4.00;4.00;;;;;14.40;100.00;101849.16;6290312;22;44645;-86
2022/05/14 01:14:08;;;;;;;;;3.00;3.00;;;;;14.37;100.00;101852.91;6290683;22;44899;-84
2022/05/14 01:16:35;;;;;;;;;5.25;3.25;;;;;14.35;100.00;101851.25;6257480;22;45965;-86
2022/05/14 01:19:01;;;;;;;;;3.00;3.00;;;;;14.33;100.00;101847.84;6258397;22;44749;-85
2022/05/14 01:21:42;;;;;;;;;4.00;2.50;;;;;14.31;100.00;101847.06;6234542;22;44727;-86
2022/05/14 01:27:11;;;;;;;;;6.80;3.40;;;;;14.26;100.00;101844.69;6279619;22;44961;-86
2022/05/14 01:29:38;;;;;;;;;4.50;3.25;;;;;14.26;100.00;101841.16;6253854;22;45168;-85
2022/05/14 01:32:04;;;;;;;;;6.20;3.80;;;;;14.24;100.00;101845.78;6281741;22;44674;-86
2022/05/14 01:34:35;;;;;;;;;4.50;3.00;;;;;14.22;100.00;101839.69;6255016;22;45350;-86
2022/05/14 01:37:01;;;;;;;;;2.75;2.00;;;;;14.22;100.00;101842.34;6256818;22;45129;-86
2022/05/14 01:39:28;;;;;;;;;5.00;3.20;;;;;14.21;100.00;101837.94;6258546;22;44781;-85
2022/05/14 01:41:54;;;;;;;;;4.80;3.00;;;;;14.20;100.00;101834.41;6260386;22;44713;-85
2022/05/14 01:44:33;;;;;;;;;2.00;2.00;;;;;14.16;100.00;101832.88;6262627;22;44936;-85
2022/05/14 01:46:59;;;;;;;;;2.60;2.00;;;;;14.13;100.00;101831.28;6266373;22;46653;-85
2022/05/14 01:49:25;;;;;;;;;3.00;3.00;;;;;14.08;100.00;101829.88;6260659;22;45164;-86
2022/05/14 01:51:53;;;;;;;;;3.60;1.40;;;;;14.06;100.00;101831.75;6285802;22;44547;-86
2022/05/14 01:54:19;;;;;;;;;4.50;3.25;;;;;14.03;100.00;101834.66;6289495;22;44733;-85
2022/05/14 01:56:45;;;;;;;;;3.75;3.75;;;;;13.99;100.00;101835.81;6286638;22;45129;-86
2022/05/14 01:59:11;;;;;;;;;2.25;2.25;;;;;13.95;100.00;101824.44;6237266;22;44773;-86
2022/05/14 02:01:37;;;;;;;;;6.50;4.25;;;;;13.93;100.00;101828.19;6265842;22;44774;-85
2022/05/14 02:04:05;;;;;;;;;5.25;3.50;;;;;13.92;100.00;101835.31;6288748;22;44690;-85
2022/05/14 02:06:34;;;;;;;;;3.00;3.00;;;;;13.90;100.00;101826.56;6262101;22;46565;-85
2022/05/14 02:09:08;;;;;;;;;5.20;5.20;;;;;13.89;100.00;101830.19;6289455;22;45294;-86
2022/05/14 02:11:34;;;;;;;;;6.60;5.80;;;;;13.84;100.00;101824.28;6264843;22;44755;-86
2022/05/14 02:14:00;;;;;;;;;4.00;4.00;;;;;13.82;100.00;101821.69;6261331;22;44840;-85
2022/05/14 02:16:27;;;;;;;;;7.25;5.50;;;;;13.80;100.00;101823.59;6282064;22;45286;-86
2022/05/14 02:18:53;;;;;;;;;4.25;4.25;;;;;13.80;100.00;101828.09;6282928;22;45270;-84
2022/05/14 02:21:20;;;;;;;;;4.60;2.60;;;;;13.76;100.00;101823.88;6284437;22;45392;-85
2022/05/14 02:23:47;;;;;;;;;8.75;4.00;;;;;13.73;100.00;101816.06;6281751;22;44797;-86
2022/05/14 02:26:13;;;;;;;;;6.00;4.25;;;;;13.72;100.00;101825.03;6254978;22;45319;-85
2022/05/14 02:28:40;;;;;;;;;6.20;4.20;;;;;13.67;100.00;101822.66;6254841;22;45322;-86
2022/05/14 02:31:06;;;;;;;;;3.25;2.00;;;;;13.60;100.00;101827.53;6255316;22;44787;-87
2022/05/14 02:33:35;;;;;;;;;3.50;3.50;;;;;13.60;100.00;101824.00;6255015;22;44912;-86
2022/05/14 02:36:02;;;;;;;;;4.50;3.25;;;;;13.54;100.00;101825.25;6281892;22;45388;-86
2022/05/14 02:38:30;;;;;;;;;4.00;2.80;;;;;13.55;100.00;101826.94;6289652;22;45317;-85
2022/05/14 02:40:57;;;;;;;;;2.40;2.40;;;;;13.51;100.00;101821.91;6263762;22;44685;-86
2022/05/14 02:43:28;;;;;;;;;5.75;2.50;;;;;13.48;100.00;101830.09;6283539;22;44864;-87
2022/05/14 02:45:55;;;;;;;;;3.25;2.75;;;;;13.48;100.00;101835.41;6231197;22;45343;-86
2022/05/14 02:48:21;;;;;;;;;4.40;3.00;;;;;13.44;100.00;101832.09;6258981;22;44679;-85
2022/05/14 02:50:49;;;;;;;;;2.50;2.50;;;;;13.44;100.00;101840.13;6259542;22;44709;-87
2022/05/14 02:53:21;;;;;;;;;4.00;2.75;;;;;13.44;100.00;101837.44;6257696;22;44980;-85
2022/05/14 02:55:47;;;;;;;;;4.00;3.00;;;;;13.43;100.00;101826.84;6262254;22;47054;-85
2022/05/14 02:59:06;;;;;;;;;2.50;2.50;;;;;13.43;100.00;101834.84;6288680;22;45253;-84
2022/05/14 03:00:58;;;;;;;;;9.00;5.50;;;;;13.42;100.00;101841.16;6287597;22;45136;-85
2022/05/14 03:03:23;;;;;;;;;2.00;2.00;;;;;13.37;100.00;101828.94;6295070;22;45424;-85
2022/05/14 03:05:49;;;;;;;;;5.00;4.50;;;;;13.39;100.00;101839.50;6267359;22;45342;-87
2022/05/14 03:08:14;;;;;;;;;4.50;4.50;;;;;13.36;100.00;101837.91;6296815;22;44622;-84
2022/05/14 03:10:40;;;;;;;;;2.50;2.50;;;;;13.36;100.00;101839.72;6294411;22;44689;-85
2022/05/14 03:13:07;;;;;;;;;4.00;3.50;;;;;13.33;100.00;101846.09;6258223;22;44773;-85
2022/05/14 03:15:32;;;;;;;;;6.50;5.00;;;;;13.31;100.00;101839.13;6282375;22;45468;-86
2022/05/14 03:17:58;;;;;;;;;5.50;5.50;;;;;13.31;100.00;101831.13;6291476;22;44745;-87
2022/05/14 03:20:23;;;;;;;;;3.75;3.75;;;;;13.33;100.00;101824.72;6285287;22;44781;-85
2022/05/14 03:22:49;;;;;;;;;3.00;3.00;;;;;13.34;100.00;101831.81;6262122;22;44888;-85
2022/05/14 03:25:14;;;;;;;;;0.00;0.00;;;;;13.35;100.00;101833.53;6291398;22;46763;-86
2022/05/14 03:27:40;;;;;;;;;11.25;5.75;;;;;13.34;100.00;101829.16;6288144;22;44835;-87
2022/05/14 03:30:06;;;;;;;;;5.00;3.00;;;;;13.33;100.00;101832.75;6290882;22;45356;-83
2022/05/14 03:32:32;;;;;;;;;3.50;3.00;;;;;13.35;100.00;101830.84;6290927;22;45219;-85
2022/05/14 03:35:00;;;;;;;;;2.25;2.25;;;;;13.34;100.00;101836.25;6264115;22;46793;-85
2022/05/14 03:37:26;;;;;;;;;7.75;5.00;;;;;13.31;100.00;101834.66;6295902;22;44628;-84
2022/05/14 03:39:51;;;;;;;;;3.50;3.50;;;;;13.33;100.00;101831.88;6286669;22;44882;-85
2022/05/14 03:42:18;;;;;;;;;5.50;3.50;;;;;13.31;100.00;101823.97;6260993;22;44867;-84
2022/05/14 03:44:43;;;;;;;;;4.00;2.75;;;;;13.30;100.00;101830.28;6289277;22;45433;-86
2022/05/14 03:47:10;;;;;;;;;3.00;3.00;;;;;13.29;100.00;101830.34;6264765;22;44615;-85
2022/05/14 03:49:36;;;;;;;;;0.50;0.50;;;;;13.27;100.00;101825.13;6266442;22;45200;-87
2022/05/14 03:52:01;;;;;;;;;4.25;4.25;;;;;13.27;100.00;101835.78;6292706;22;44798;-85
2022/05/14 03:54:28;;;;;;;;;3.50;3.50;;;;;13.24;100.00;101832.44;6266853;22;46653;-86
2022/05/14 03:56:53;;;;;;;;;3.40;3.00;;;;;13.21;100.00;101828.13;6292765;22;44648;-86
2022/05/14 03:59:22;;;;;;;;;2.00;2.00;;;;;13.19;100.00;101831.81;6293828;22;44871;-84
2022/05/14 04:01:47;;;;;;;;;6.50;5.50;;;;;13.16;100.00;101832.88;6265301;22;44897;-85
2022/05/14 04:04:13;;;;;;;;;5.00;4.50;;;;;13.13;100.00;101836.59;6291999;22;45251;-88
2022/05/14 04:06:38;;;;;;;;;2.50;2.50;;;;;13.12;100.00;101828.69;6260093;22;45188;-85
2022/05/14 04:09:04;;;;;;;;;5.50;4.75;;;;;13.10;100.00;101831.44;6260825;22;45275;-85
2022/05/14 04:11:29;;;;;;;;;5.00;3.00;;;;;13.09;100.00;101831.53;6288063;22;44838;-83
2022/05/14 04:13:56;;;;;;;;;5.75;4.25;;;;;13.08;100.00;101828.00;6290410;22;45368;-84
2022/05/14 04:16:21;;;;;;;;;3.60;3.60;;;;;13.10;100.00;101826.13;6261216;22;44630;-84
2022/05/14 04:18:46;;;;;;;;;2.75;2.75;;;;;13.14;100.00;101829.44;6256603;22;45251;-82
2022/05/14 04:21:12;;;;;;;;;4.75;3.00;;;;;13.14;100.00;101832.09;6284220;22;45299;-82
2022/05/14 04:23:37;;;;;;;;;3.75;3.75;;;;;13.19;100.00;101839.84;6287125;22;44968;-86
2022/05/14 04:26:04;;;;;;;;;4.00;3.75;;;;;13.25;100.00;101832.38;6287612;22;45122;-84
2022/05/14 04:28:29;;;;;;;;;2.00;2.00;;;;;13.36;100.00;101840.56;6281907;22;45154;-84
2022/05/14 04:30:55;;;;;;;;;3.75;3.00;;;;;13.47;100.00;101837.25;6279631;22;44787;-83
2022/05/14 04:33:21;;;;;;;;;4.75;3.00;;;;;13.59;100.00;101831.16;6282799;22;45110;-84
2022/05/14 04:35:47;;;;;;;;;3.75;2.50;;;;;13.73;100.00;101840.09;6280784;22;45560;-83
2022/05/14 04:38:12;;;;;;;;;2.50;2.50;;;;;13.86;100.00;101839.22;6277799;22;44701;-83
2022/05/14 04:40:38;;;;;;;;;4.50;3.25;;;;;14.01;100.00;101831.19;6278936;22;44892;-84
2022/05/14 04:43:06;;;;;;;;;2.00;2.00;;;;;14.17;100.00;101826.59;6280923;22;45266;-84
2022/05/14 04:45:32;;;;;;;;;2.00;2.00;;;;;14.30;100.00;101842.69;6280077;22;45301;-83
2022/05/14 04:47:57;;;;;;;;;4.00;4.00;;;;;14.45;100.00;101839.00;6280824;22;45171;-85
2022/05/14 04:50:23;;;;;;;;;4.00;4.00;;;;;14.63;100.00;101831.63;6253156;22;44881;-84
2022/05/14 04:52:48;;;;;;;;;7.00;2.00;;;;;14.83;100.00;101849.03;6284924;22;46464;-84
2022/05/14 04:55:13;;;;;;;;;2.00;2.00;;;;;14.94;100.00;101833.13;6287929;22;44716;-84
2022/05/14 04:57:41;;;;;;;;;3.00;2.00;;;;;15.03;100.00;101828.94;6288668;22;44720;-85
2022/05/14 05:00:07;;;;;;;;;2.40;2.40;;;;;15.14;100.00;101839.78;6284880;22;44706;-82
2022/05/14 05:05:17;;;;;;;;;2.20;2.00;;;;;15.41;100.00;101839.69;6282153;22;45286;-82
2022/05/14 05:07:43;;;;;;;;;6.50;3.00;;;;;15.51;100.00;101837.22;6255428;22;44762;-84
2022/05/14 05:10:08;;;;;;;;;6.00;3.75;;;;;15.54;100.00;101835.19;6282280;22;45291;-84
2022/05/14 05:12:34;;;;;;;;;2.00;2.00;;;;;15.63;100.00;101837.25;6282882;22;44996;-83
2022/05/14 05:14:59;;;;;;;;;3.50;1.00;;;;;15.76;100.00;101837.25;6282635;22;44735;-83
2022/05/14 05:17:26;;;;;;;;;3.50;2.25;;;;;15.89;100.00;101835.41;6281843;22;44749;-82
2022/05/14 05:19:51;;;;;;;;;3.25;3.25;;;;;16.06;100.00;101841.38;6286866;22;44831;-84
2022/05/14 05:22:16;;;;;;;;;2.00;2.00;;;;;16.20;100.00;101838.56;6283396;22;45311;-84
2022/05/14 05:24:42;;;;;;;;;4.25;4.25;;;;;16.29;100.00;101837.84;6282850;22;44760;-86
2022/05/14 05:27:07;;;;;;;;;3.00;2.25;;;;;16.38;100.00;101839.88;6279388;22;45311;-83
2022/05/14 05:29:32;;;;;;;;;2.00;2.00;;;;;16.49;100.00;101851.63;6250455;22;44833;-84
2022/05/14 05:31:58;;;;;;;;;2.00;2.00;;;;;16.66;100.00;101844.03;6280770;22;45119;-85
2022/05/14 05:34:24;;;;;;;;;2.50;2.50;;;;;16.86;100.00;101845.25;6252466;22;44638;-85
2022/05/14 05:36:49;;;;;;;;;4.00;2.00;;;;;17.03;100.00;101843.13;6251777;22;44652;-85
2022/05/14 05:39:15;;;;;;;;;2.00;2.00;;;;;17.27;100.00;101845.75;6279600;22;44604;-83
2022/05/14 05:41:40;;;;;;;;;2.25;2.25;;;;;17.42;100.00;101847.25;6275748;22;45379;-83
2022/05/14 05:44:06;;;;;;;;;2.75;2.75;;;;;17.63;100.00;101845.53;6278080;22;45176;-84
2022/05/14 05:46:32;;;;;;;;;4.25;3.00;;;;;17.79;100.00;101847.03;6255739;22;44679;-84
2022/05/14 05:48:58;;;;;;;;;1.20;1.20;;;;;17.87;100.00;101847.28;6250857;22;44897;-83
2022/05/14 05:51:23;;;;;;;;;2.00;0.75;;;;;17.97;100.00;101849.13;6254691;22;46482;-84
2022/05/14 05:56:51;;;;;;;;;2.60;2.60;;;;;18.14;100.00;101844.22;6282667;22;44698;-85
2022/05/14 05:59:18;;;;;;;;;5.00;3.60;;;;;18.22;100.00;101849.81;6256720;22;45533;-85
2022/05/14 06:01:44;;;;;;;;;2.40;2.40;;;;;18.21;100.00;101857.03;6288294;22;45358;-85
2022/05/14 06:04:10;;;;;;;;;2.80;2.80;;;;;18.30;100.00;101855.44;6265264;22;44673;-85
2022/05/14 06:06:40;;;;;;;;;8.00;7.25;;;;;18.34;100.00;101856.03;6285890;22;44741;-85
2022/05/14 06:09:08;;;;;;;;;3.20;2.20;;;;;18.40;100.00;101860.91;6279231;22;45304;-85
2022/05/14 06:12:16;;;;;;;;;2.80;2.00;;;;;18.51;100.00;101855.50;6251724;22;45317;-85
2022/05/14 06:14:43;;;;;;;;;1.40;1.20;;;;;18.62;100.00;101862.72;6234396;22;44837;-84
2022/05/14 06:17:10;;;;;;;;;4.00;3.00;;;;;18.71;100.00;101859.25;6274527;22;45357;-84
2022/05/14 06:19:51;;;;;;;;;3.40;1.80;;;;;18.79;100.00;101862.16;6250361;22;44860;-86
2022/05/14 06:22:16;;;;;;;;;1.20;1.20;;;;;18.80;100.00;101863.88;6255855;22;45447;-84
2022/05/14 06:24:42;;;;;;;;;2.75;2.75;;;;;18.74;100.00;101867.94;6259353;22;44772;-83
2022/05/14 06:27:07;;;;;;;;;2.25;2.25;;;;;18.72;100.00;101861.84;6286864;22;44713;-84
2022/05/14 06:29:48;;;;;;;;;3.25;2.25;;;;;18.80;100.00;101866.56;6287059;22;44791;-86
2022/05/14 06:32:13;;;;;;;;;6.20;5.00;;;;;18.89;100.00;101868.50;6254922;22;45105;-84
2022/05/14 06:34:39;;;;;;;;;3.50;2.75;;;;;18.96;100.00;101875.09;6276385;22;44762;-85
2022/05/14 06:37:04;;;;;;;;;7.00;2.00;;;;;19.03;100.00;101871.88;6275567;22;45331;-85
2022/05/14 06:39:30;;;;;;;;;2.60;2.40;;;;;19.14;100.00;101883.41;6278756;22;44813;-84
2022/05/14 06:41:57;;;;;;;;;3.00;2.00;;;;;19.18;100.00;101871.41;6286722;22;44950;-84
2022/05/14 06:44:32;;;;;;;;;3.60;2.40;;;;;19.27;99.98;101875.16;6279347;22;45336;-86
2022/05/14 06:46:58;;;;;;;;;2.40;2.40;;;;;19.45;98.63;101876.28;6250807;22;44839;-86
2022/05/14 06:49:23;;;;;;;;;3.40;2.40;;;;;19.51;99.20;101880.28;6251464;22;44817;-83
2022/05/14 06:51:52;;;;;;;;;5.00;4.00;;;;;19.58;98.02;101881.47;6250262;22;46727;-84
2022/05/14 06:54:20;;;;;;;;;1.60;1.60;;;;;19.66;97.50;101870.03;6278175;22;44653;-84
2022/05/14 06:56:47;;;;;;;;;2.80;2.40;;;;;19.61;96.52;101867.75;6279388;22;44731;-83
2022/05/14 06:59:14;;;;;;;;;4.40;2.00;;;;;19.59;97.19;101872.38;6280380;22;45171;-84
2022/05/14 07:01:42;;;;;;;;;4.40;2.00;;;;;19.63;96.83;101870.28;6283672;22;45209;-84
2022/05/14 07:06:56;;;;;;;;;1.60;1.60;;;;;19.91;95.55;101874.97;6292906;22;44734;-85
2022/05/14 07:09:27;;;;;;;;;3.00;1.75;;;;;20.07;95.30;101874.50;6294894;22;44715;-85
2022/05/14 07:11:59;;;;;;;;;5.20;5.20;;;;;20.28;94.74;101882.50;6257782;22;45476;-84
2022/05/14 07:14:26;;;;;;;;;2.00;2.00;;;;;20.46;92.79;101880.00;6252847;22;44725;-83
2022/05/14 07:16:53;;;;;;;;;3.60;3.00;;;;;20.57;93.37;101881.75;6286086;22;44602;-84
2022/05/14 07:19:25;;;;;;;;;6.20;2.00;;;;;20.60;92.50;101873.34;6287580;22;44805;-85
2022/05/14 07:21:52;;;;;;;;;2.40;2.40;;;;;20.61;91.84;101870.53;6257187;22;46799;-86
2022/05/14 07:24:28;;;;;;;;;3.20;2.00;;;;;20.72;92.25;101873.09;6253131;22;44640;-84
2022/05/14 07:26:57;;;;;;;;;4.20;3.00;;;;;20.49;90.17;101871.63;6255760;22;44802;-83
2022/05/14 07:29:24;;;;;;;;;3.00;1.60;;;;;20.44;90.79;101865.75;6283010;22;44800;-85
2022/05/14 07:31:51;;;;;;;;;3.00;2.00;;;;;20.49;90.72;101863.53;6280686;22;45111;-84
2022/05/14 07:34:16;;;;;;;;;2.80;2.20;;;;;20.58;91.63;101868.09;6281328;22;44915;-85
2022/05/14 07:37:00;;;;;;;;;2.00;2.00;;;;;20.53;89.83;101864.97;6286518;22;45259;-84
2022/05/14 07:39:31;;;;;;;;;3.20;2.80;;;;;20.50;91.36;101867.94;6283074;22;44700;-84
2022/05/14 07:42:00;;;;;;;;;3.40;1.20;;;;;20.47;90.47;101871.78;6252363;22;45501;-84
2022/05/14 07:44:34;;;;;;;;;2.00;2.00;;;;;20.34;91.45;101864.91;6248479;22;44665;-84
2022/05/14 07:47:01;;;;;;;;;2.60;2.40;;;;;20.32;91.46;101865.03;6250872;22;44809;-84
2022/05/14 07:49:27;;;;;;;;;3.60;2.20;;;;;20.26;93.26;101863.75;6255627;22;45317;-85
2022/05/14 07:51:54;;;;;;;;;2.60;2.60;;;;;20.27;93.12;101862.75;6251228;22;47385;-84
2022/05/14 07:54:20;;;;;;;;;4.40;3.00;;;;;20.42;92.35;101859.66;6276657;22;45264;-85
2022/05/14 07:56:46;;;;;;;;;3.80;2.00;;;;;20.56;92.46;101859.28;6278525;22;44684;-85
2022/05/14 07:59:12;;;;;;;;;1.80;1.80;;;;;20.57;90.77;101860.16;6280482;22;44783;-83
2022/05/14 08:01:40;;;;;;;;;1.75;1.75;;;;;20.52;89.69;101855.16;6278130;22;44930;-83
2022/05/14 08:04:05;;;;;;;;;6.40;5.00;;;;;20.29;91.10;101852.66;6280437;22;45170;-84
2022/05/14 08:06:31;;;;;;;;;3.75;2.00;;;;;20.40;90.45;101856.22;6284485;22;45278;-84
2022/05/14 08:08:57;;;;;;;;;4.50;2.50;;;;;20.41;90.40;101852.56;6256616;22;44845;-84
2022/05/14 08:11:22;;;;;;;;;2.50;2.00;;;;;20.59;90.97;101853.59;6277060;22;45230;-82
2022/05/14 08:13:48;;;;;;;;;2.50;2.50;;;;;20.75;90.40;101848.50;6276848;22;45288;-83
2022/05/14 08:16:13;;;;;;;;;2.00;2.00;;;;;20.78;90.03;101850.06;6276878;22;44994;-84
2022/05/14 08:18:38;;;;;;;;;2.00;2.00;;;;;20.89;89.87;101849.94;6276779;22;45252;-81
2022/05/14 08:26:33;;;;;;;;;2.20;2.20;;;;;20.95;89.15;101852.06;6282922;22;44676;-84
2022/05/14 08:28:58;;;;;;;;;3.00;2.25;;;;;20.99;89.03;101850.78;6285289;22;44873;-83
2022/05/14 08:31:23;;;;;;;;;3.00;2.00;;;;;20.76;89.04;101847.50;6284829;22;45097;-84
2022/05/14 08:33:48;;;;;;;;;2.00;2.00;;;;;20.75;89.33;101847.66;6281794;22;44731;-83
2022/05/14 08:36:14;;;;;;;;;3.00;3.00;;;;;20.84;89.18;101854.91;6276940;22;44693;-82
2022/05/14 08:38:39;;;;;;;;;6.00;3.00;;;;;20.82;88.55;101847.94;6279460;22;44779;-83
2022/05/14 08:41:05;;;;;;;;;6.25;3.00;;;;;20.54;89.22;101848.59;6278426;22;44892;-82
2022/05/14 08:43:32;;;;;;;;;4.25;3.00;;;;;20.48;92.14;101846.47;6249250;22;44866;-83
2022/05/14 08:45:59;;;;;;;;;4.20;3.60;;;;;20.43;91.76;101846.03;6277655;22;44903;-84
2022/05/14 08:48:27;;;;;;;;;5.40;4.00;;;;;20.27;91.57;101840.31;6277969;22;44805;-83
2022/05/14 08:51:16;;;;;;;;;5.00;3.00;;;;;20.52;90.64;101837.13;6276332;22;44981;-84
2022/05/14 08:53:46;;;;;;;;;2.60;2.60;;;;;20.73;90.47;101836.97;6273002;22;45297;-84
2022/05/14 08:56:25;;;;;;;;;2.80;2.80;;;;;20.81;86.93;101838.97;6278935;22;45155;-83
2022/05/14 08:58:56;;;;;;;;;2.80;2.00;;;;;20.75;85.98;101837.69;6277889;22;44737;-82
2022/05/14 09:01:26;;;;;;;;;2.00;2.00;;;;;20.78;87.53;101840.09;6256063;22;46598;-84
2022/05/14 09:03:52;;;;;;;;;5.20;3.00;;;;;20.86;87.93;101830.44;6277851;22;44790;-84
2022/05/14 09:06:18;;;;;;;;;5.20;3.20;;;;;20.88;87.86;101831.16;6253396;22;44707;-85
2022/05/14 09:08:44;;;;;;;;;1.80;1.80;;;;;20.82;86.16;101842.53;6282411;22;44815;-84
2022/05/14 09:11:23;;;;;;;;;2.75;2.00;;;;;20.88;85.15;101839.25;6282098;22;45211;-84
2022/05/14 09:13:54;;;;;;;;;3.00;3.00;;;;;20.90;84.67;101842.69;6253228;22;44807;-84
2022/05/14 09:16:32;;;;;;;;;4.20;2.80;;;;;21.02;83.57;101841.50;6280006;22;45221;-84
2022/05/14 09:18:58;;;;;;;;;7.40;3.60;;;;;21.02;84.74;101845.06;6277129;22;45163;-85
2022/05/14 09:21:36;;;;;;;;;1.00;1.00;;;;;21.24;84.70;101840.34;6248230;22;46948;-83
2022/05/14 09:24:16;;;;;;;;;1.00;1.00;;;;;21.39;83.13;101840.78;6275851;22;44819;-84
2022/05/14 09:26:43;;;;;;;;;2.00;2.00;;;;;21.26;83.83;101835.66;6281028;22;45325;-83
2022/05/14 09:29:33;;;;;;;;;2.40;2.40;;;;;21.18;81.58;101836.38;6284282;22;44975;-84
2022/05/14 09:32:25;;;;;;;;;4.00;1.80;;;;;21.40;83.47;101827.09;6278580;22;45323;-84
2022/05/14 09:35:02;;;;;;;;;0.20;0.20;;;;;21.73;82.55;101820.31;6276072;22;44796;-84
2022/05/14 09:37:28;;;;;;;;;1.40;1.00;;;;;22.01;80.99;101823.88;6249218;22;44816;-83
2022/05/14 09:39:59;;;;;;;;;2.00;2.00;;;;;22.11;78.21;101820.28;6274071;22;44881;-83
2022/05/14 09:42:30;;;;;;;;;3.00;2.40;;;;;22.15;76.93;101819.00;6276824;22;45643;-84
2022/05/14 09:44:57;;;;;;;;;2.20;2.20;;;;;22.33;76.95;101826.13;6272739;22;45289;-80
2022/05/14 09:47:33;;;;;;;;;2.60;2.60;;;;;22.46;76.69;101805.94;6274407;22;45268;-80
2022/05/14 09:50:07;;;;;;;;;4.00;3.00;;;;;22.61;74.35;101808.97;6272478;22;44772;-80
2022/05/14 09:52:36;;;;;;;;;1.20;1.20;;;;;22.70;74.50;101808.88;6273825;22;44931;-80
2022/05/14 09:55:08;;;;;;;;;2.00;2.00;;;;;22.63;72.77;101806.94;6277519;22;44758;-83
2022/05/14 09:57:57;;;;;;;;;2.80;2.80;;;;;22.65;70.57;101811.22;6254120;22;45305;-79
2022/05/14 10:00:29;;;;;;;;;2.80;2.80;;;;;22.40;70.90;101795.75;6278973;22;44788;-83
2022/05/14 10:03:18;;;;;;;;;4.60;2.00;;;;;22.12;72.58;101790.38;6280246;22;45108;-83
2022/05/14 10:06:08;;;;;;;;;2.00;2.00;;;;;22.20;74.58;101785.06;6277174;22;44630;-81
2022/05/14 10:08:36;;;;;;;;;3.80;3.80;;;;;22.39;73.35;101781.34;6275800;22;44622;-77
2022/05/14 10:11:18;;;;;;;;;3.60;2.00;;;;;22.56;73.03;101783.19;6276367;22;45425;-78
2022/05/14 10:13:56;;;;;;;;;3.60;2.40;;;;;22.80;72.60;101785.25;6248878;22;45326;-81
2022/05/14 10:16:39;;;;;;;;;3.00;3.00;;;;;22.93;71.26;101778.63;6246802;22;45239;-79
2022/05/14 10:19:18;;;;;;;;;3.00;2.40;;;;;22.94;68.68;101783.88;6275496;22;44745;-82
2022/05/14 10:22:10;;;;;;;;;5.80;3.40;;;;;22.91;69.46;101786.91;6275943;22;44642;-80
2022/05/14 10:28:21;;;;;;;;;2.20;2.20;;;;;23.04;69.16;101783.78;6275990;22;44874;-81
2022/05/14 10:31:03;;;;;;;;;3.00;3.00;;;;;23.13;68.24;101787.41;6271161;22;45326;-80
2022/05/14 10:33:30;;;;;;;;;4.80;3.00;;;;;23.25;67.94;101786.97;6247144;22;44821;-80
2022/05/14 10:36:17;;;;;;;;;3.00;2.00;;;;;23.14;65.37;101781.81;6273553;22;45253;-80
2022/05/14 10:38:50;;;;;;;;;3.00;3.00;;;;;23.09;64.73;101779.59;6272946;22;44799;-79
2022/05/14 10:41:37;;;;;;;;;5.80;3.20;;;;;22.56;66.85;101777.78;6245961;22;45358;-81
2022/05/14 10:44:09;;;;;;;;;2.20;1.00;;;;;22.40;68.55;101777.63;6273326;22;44771;-79
2022/05/14 10:46:38;;;;;;;;;3.80;3.80;;;;;22.48;73.30;101766.00;6272869;22;45204;-78
2022/05/14 10:49:15;;;;;;;;;4.00;3.00;;;;;22.67;70.98;101763.13;6275054;22;45346;-81
2022/05/14 10:51:48;;;;;;;;;4.60;3.60;;;;;23.01;70.19;101762.41;6278424;22;44682;-82
2022/05/14 10:54:18;;;;;;;;;2.40;2.40;;;;;23.25;69.97;101764.44;6262835;22;44825;-85
2022/05/14 10:56:54;;;;;;;;;6.00;6.00;;;;;23.50;70.02;101765.44;6289759;22;45384;-86
2022/05/14 10:59:37;;;;;;;;;2.20;2.20;;;;;23.78;69.08;101763.34;6282825;22;44665;-87
2022/05/14 11:02:15;;;;;;;;;2.20;2.20;;;;;23.92;66.30;101765.44;6281095;22;44647;-87
2022/05/14 11:04:41;;;;;;;;;4.20;3.00;;;;;24.00;66.11;101772.78;6281353;22;44786;-86
2022/05/14 11:07:14;;;;;;;;;3.00;1.50;;;;;24.06;65.14;101764.81;6255405;22;45456;-87
2022/05/14 11:09:48;;;;;;;;;3.00;3.00;;;;;24.15;61.78;101770.25;6253654;22;44764;-86
2022/05/14 11:12:19;;;;;;;;;6.60;4.60;;;;;24.09;63.98;101756.34;6282075;22;44982;-86
2022/05/14 11:14:52;;;;;;;;;3.00;3.00;;;;;24.19;62.48;101766.19;6260058;22;44885;-87
2022/05/14 11:17:33;;;;;;;;;3.00;3.00;;;;;24.17;62.75;101757.34;6293902;22;45342;-87
2022/05/14 11:20:02;;;;;;;;;6.80;5.00;;;;;24.18;61.10;101754.50;6287155;22;44804;-88
2022/05/14 11:22:33;;;;;;;;;5.00;5.00;;;;;24.16;62.37;101752.94;6255316;22;44672;-86
2022/05/14 11:25:13;;;;;;;;;6.20;6.20;;;;;24.25;62.14;101741.94;6284851;22;44934;-87
2022/05/14 11:27:39;;;;;;;;;6.00;4.60;;;;;24.38;61.68;101741.47;6254076;22;46955;-88
2022/05/14 11:30:16;;;;;;;;;5.80;3.00;;;;;24.36;61.83;101747.06;6254421;22;44667;-87
2022/05/14 11:32:48;;;;;;;;;3.00;3.00;;;;;24.07;61.09;101739.34;6282698;22;44731;-87
2022/05/14 11:35:15;;;;;;;;;7.40;6.00;;;;;23.82;59.20;101732.16;6283089;22;44760;-88
2022/05/14 11:37:45;;;;;;;;;6.00;5.00;;;;;23.93;62.39;101736.44;6286769;22;45175;-87
2022/05/14 11:40:16;;;;;;;;;6.40;6.40;;;;;24.13;60.83;101726.13;6259299;22;44774;-85
2022/05/14 11:42:43;;;;;;;;;4.60;4.60;;;;;24.32;59.85;101729.41;6265172;22;45242;-88
2022/05/14 11:45:29;;;;;;;;;1.60;1.60;;;;;24.37;57.66;101734.34;6293624;22;44688;-87
2022/05/14 11:48:18;;;;;;;;;8.40;8.20;;;;;24.37;57.90;101731.63;6284404;22;45015;-85
2022/05/14 11:51:05;;;;;;;;;4.60;4.20;;;;;24.33;53.96;101735.66;6257245;22;44621;-87
2022/05/14 11:54:12;;;;;;;;;6.40;5.20;;;;;24.21;56.06;101728.84;6285388;22;44724;-86